Eastern Galaxy — DUCH — position and weather

sailwx.info

Track history (hours):
 
Tides and Currents Weather Stations Pressure Air Temp Water Temp Dewpoint Dewpoint Depression Visibility Wind Speed Wind Dir Waves Ship Positions

Eastern Galaxy

Last reported at 2017-Dec-12 10:32 UTC. Time now 2017-Dec-18 09:04 UTC.
Position N 34°11' E 138°05'.

Length 100 m; draft 5.8 m.

Type: Cargo ship. MMSI: 548829000.

Date/timePositionNaut miles runAvg speedWind from/ knotsBaromVisibWave heightAir tempDewpointWater temp
2017-Dec-12 10:32N 34°11' E 138°05'9 7.7
2017-Dec-12 09:25N 34°14' E 138°15'3 6.1
2017-Dec-12 08:59N 34°15' E 138°18'3 4.6
2017-Dec-12 08:26N 34°16' E 138°21'3 4.9
2017-Dec-12 07:47N 34°18' E 138°24'1 4.6
2017-Dec-12 07:29N 34°19' E 138°25'3 4.9
2017-Dec-12 06:59N 34°19' E 138°28'2 4.9
2017-Dec-12 06:30N 34°20' E 138°31'2 4.8
2017-Dec-12 06:00N 34°21' E 138°34'3 4.9
2017-Dec-12 05:28N 34°22' E 138°36'2 5.0
2017-Dec-12 05:00N 34°23' E 138°39'2 4.6
2017-Dec-12 04:30N 34°24' E 138°42'3 5.1
2017-Dec-12 04:00N 34°25' E 138°45'4 6.6
2017-Dec-12 03:22N 34°27' E 138°49'3 5.8
2017-Dec-12 02:54N 34°28' E 138°52'2 4.7
2017-Dec-12 02:30N 34°29' E 138°54'3 5.6
2017-Dec-12 02:00N 34°29' E 138°58'3 5.8
2017-Dec-12 01:30N 34°31' E 139°00'3 5.6
2017-Dec-12 01:00N 34°33' E 139°02'3 5.4
2017-Dec-12 00:30N 34°36' E 139°04'3 6.3
2017-Dec-12 00:00N 34°38' E 139°06'3 5.8
2017-Dec-11 23:30N 34°41' E 139°08'4 7.4
2017-Dec-11 22:57N 34°44' E 139°12'3 7.3
2017-Dec-11 22:30N 34°46' E 139°15'4 7.1
2017-Dec-11 22:00N 34°49' E 139°18'3 6.6
2017-Dec-11 21:31N 34°51' E 139°20'3 6.4
2017-Dec-11 21:00N 34°52' E 139°24'4 7.5
2017-Dec-11 20:29N 34°53' E 139°28'4 8.7
2017-Dec-11 20:00N 34°57' E 139°32'5 9.4
2017-Dec-11 19:30N 35°00' E 139°35'5 9.6
2017-Dec-11 19:00N 35°03' E 139°40'4 8.8
2017-Dec-11 18:30N 35°06' E 139°44'5 9.6
2017-Dec-11 18:00N 35°11' E 139°46'510.3
2017-Dec-11 17:30N 35°16' E 139°46'611.6
2017-Dec-11 17:00N 35°21' E 139°42'510.2
2017-Dec-11 16:30N 35°26' E 139°43'2 4.4
2017-Dec-11 15:56N 35°28' E 139°42'0 0.0
2017-Dec-11 15:26N 35°28' E 139°42'0 0.0
2017-Dec-11 14:56N 35°28' E 139°42'0 0.0
2017-Dec-11 14:24N 35°28' E 139°42'0 0.0
2017-Dec-11 14:00N 35°28' E 139°42'0 0.0
2017-Dec-11 13:26N 35°28' E 139°42'0 0.0
2017-Dec-11 12:59N 35°28' E 139°42'0 0.0
2017-Dec-11 12:29N 35°28' E 139°42'0 0.0
2017-Dec-11 12:00N 35°28' E 139°42'0 0.0
2017-Dec-11 11:29N 35°28' E 139°42'0 0.0
2017-Dec-11 10:59N 35°28' E 139°42'0 0.0
2017-Dec-11 10:29N 35°28' E 139°42'0 0.0
2017-Dec-11 09:53N 35°28' E 139°42'0 0.0
2017-Dec-11 09:29N 35°28' E 139°42'0 0.0
2017-Dec-11 08:57N 35°28' E 139°42'0 0.0
2017-Dec-11 08:26N 35°28' E 139°42'0 0.0
2017-Dec-11 07:59N 35°28' E 139°42'0 0.0
2017-Dec-11 07:26N 35°28' E 139°42'0 0.0
2017-Dec-11 06:59N 35°28' E 139°42'0 0.0
2017-Dec-11 06:29N 35°28' E 139°42'0 0.0
2017-Dec-11 05:56N 35°28' E 139°42'0 0.0
2017-Dec-11 05:26N 35°28' E 139°42'0 0.0
2017-Dec-11 05:00N 35°28' E 139°42'0 0.0
2017-Dec-11 04:27N 35°28' E 139°42'0 0.0
2017-Dec-11 04:00N 35°28' E 139°42'0 0.0
2017-Dec-11 03:26N 35°28' E 139°42'0 0.0
2017-Dec-11 02:59N 35°28' E 139°42'0 0.0
2017-Dec-11 02:26N 35°28' E 139°42'0 0.0
2017-Dec-11 02:00N 35°28' E 139°42'0 0.0
2017-Dec-11 01:29N 35°28' E 139°42'0 0.0
2017-Dec-11 00:59N 35°28' E 139°42'0 0.0
2017-Dec-11 00:30N 35°28' E 139°42'0 0.0
2017-Dec-10 23:59N 35°28' E 139°42'0 0.0
2017-Dec-10 23:26N 35°28' E 139°42'0 0.0
2017-Dec-10 22:59N 35°28' E 139°42'0 0.0
2017-Dec-10 22:29N 35°28' E 139°42'1 2.2
2017-Dec-10 22:00N 35°27' E 139°43'1 2.0
2017-Dec-10 21:30N 35°26' E 139°43'0 0.0
2017-Dec-10 21:00N 35°26' E 139°43'0 0.0
2017-Dec-10 20:30N 35°26' E 139°43'0 0.0
2017-Dec-10 20:00N 35°26' E 139°43'0 0.0
2017-Dec-10 19:30N 35°26' E 139°43'0 0.0
2017-Dec-10 19:00N 35°26' E 139°43'0 0.0
2017-Dec-10 18:30N 35°26' E 139°43'0 0.1
2017-Dec-10 18:00N 35°26' E 139°43'0 0.0
2017-Dec-10 17:30N 35°26' E 139°43'0 0.0
2017-Dec-10 16:57N 35°26' E 139°43'0 0.1
2017-Dec-10 16:30N 35°26' E 139°43'0 0.0
2017-Dec-10 16:00N 35°26' E 139°43'0 0.0
2017-Dec-10 15:30N 35°26' E 139°43'0 0.0
2017-Dec-10 15:00N 35°26' E 139°43'0 0.1
2017-Dec-10 14:30N 35°26' E 139°43'0 0.0
2017-Dec-10 14:00N 35°26' E 139°43'0 0.0
2017-Dec-10 13:30N 35°26' E 139°43'0 0.2
2017-Dec-10 13:00N 35°26' E 139°43'1 1.1
2017-Dec-10 12:31N 35°26' E 139°43'1 2.5
2017-Dec-10 12:00N 35°26' E 139°44'3 5.8
2017-Dec-10 11:30N 35°24' E 139°46'510.6
2017-Dec-10 11:00N 35°19' E 139°44'510.0
2017-Dec-10 10:30N 35°14' E 139°47'612.2
2017-Dec-10 10:01N 35°08' E 139°46'611.7
2017-Dec-10 09:30N 35°03' E 139°42'612.9
2017-Dec-10 09:01N 34°59' E 139°36'713.5
2017-Dec-10 08:30N 34°54' E 139°30'713.7
2017-Dec-10 08:00N 34°50' E 139°24'714.1
2017-Dec-10 07:30N 34°46' E 139°17'815.0
2017-Dec-10 06:59N 34°40' E 139°11'715.3
2017-Dec-10 06:30N 34°34' E 139°06'714.7
2017-Dec-10 06:00N 34°28' E 139°00'814.2
2017-Dec-10 05:28N 34°25' E 138°52'713.6
2017-Dec-10 04:59N 34°22' E 138°45'713.6
2017-Dec-10 04:28N 34°19' E 138°37'713.5
2017-Dec-10 03:59N 34°17' E 138°30'713.5
2017-Dec-10 03:29N 34°14' E 138°22'713.4
2017-Dec-10 02:59N 34°12' E 138°15'14711.9
2017-Dec-09 14:37N 33°25' E 135°27'112.5
2017-Dec-09 14:30N 33°26' E 135°25'812.6
2017-Dec-09 13:51N 33°31' E 135°17'612.7
2017-Dec-09 13:25N 33°35' E 135°13'912.9
2017-Dec-09 12:43N 33°40' E 135°04'513.1
2017-Dec-09 12:20N 33°44' E 134°60'412.7
2017-Dec-09 12:00N 33°47' E 134°57'713.8
2017-Dec-09 11:30N 33°54' E 134°57'713.1
2017-Dec-09 11:00N 34°01' E 134°57'713.4
2017-Dec-09 10:30N 34°07' E 134°58'714.0
2017-Dec-09 10:00N 34°14' E 134°58'713.5
2017-Dec-09 09:30N 34°21' E 134°60'612.5
2017-Dec-09 09:01N 34°25' E 135°05'612.9
2017-Dec-09 08:30N 34°30' E 135°11'612.8
2017-Dec-09 08:00N 34°34' E 135°17'612.8
2017-Dec-09 07:31N 34°38' E 135°23'3 5.2
2017-Dec-09 06:58N 34°39' E 135°26'0 0.0
2017-Dec-09 06:28N 34°39' E 135°26'0 0.0
2017-Dec-09 05:58N 34°39' E 135°26'0 0.0
2017-Dec-09 05:28N 34°39' E 135°26'0 0.0
2017-Dec-09 04:58N 34°39' E 135°26'0 0.0
2017-Dec-09 04:25N 34°39' E 135°26'0 0.0
2017-Dec-09 03:58N 34°39' E 135°26'0 0.0
2017-Dec-09 03:28N 34°39' E 135°26'0 0.0
2017-Dec-09 02:58N 34°39' E 135°26'0 0.0
2017-Dec-09 02:28N 34°39' E 135°26'0 0.1
2017-Dec-09 01:58N 34°39' E 135°26'0 0.0
2017-Dec-09 01:28N 34°39' E 135°26'0 0.1
2017-Dec-09 00:55N 34°39' E 135°26'0 0.1
2017-Dec-09 00:28N 34°39' E 135°26'0 0.1
2017-Dec-08 23:58N 34°39' E 135°26'0 0.0
2017-Dec-08 23:28N 34°39' E 135°26'0 0.0
2017-Dec-08 22:58N 34°39' E 135°26'2 3.4
2017-Dec-08 22:30N 34°39' E 135°24'3 6.3
2017-Dec-08 21:59N 34°36' E 135°21'0 0.0
2017-Dec-08 21:26N 34°36' E 135°21'0 0.0
2017-Dec-08 20:56N 34°36' E 135°21'0 0.0
2017-Dec-08 20:29N 34°36' E 135°21'0 0.0
2017-Dec-08 19:56N 34°36' E 135°21'0 0.0
2017-Dec-08 19:29N 34°36' E 135°21'0 0.0
2017-Dec-08 18:56N 34°36' E 135°21'0 0.0
2017-Dec-08 18:26N 34°36' E 135°21'0 0.0
2017-Dec-08 17:56N 34°36' E 135°21'0 0.0
2017-Dec-08 17:26N 34°36' E 135°21'0 0.0
2017-Dec-08 16:50N 34°36' E 135°21'0 0.0
2017-Dec-08 16:26N 34°36' E 135°21'0 0.0
2017-Dec-08 15:56N 34°36' E 135°21'0 0.0
2017-Dec-08 15:29N 34°36' E 135°21'0 0.0
2017-Dec-08 14:59N 34°36' E 135°21'0 0.0
2017-Dec-08 14:26N 34°36' E 135°21'0 0.1
2017-Dec-08 13:59N 34°36' E 135°21'0 0.1
2017-Dec-08 13:29N 34°36' E 135°21'0 0.1
2017-Dec-08 12:59N 34°36' E 135°21'0 0.0
2017-Dec-08 12:29N 34°36' E 135°21'0 0.0
2017-Dec-08 11:59N 34°36' E 135°21'0 0.0
2017-Dec-08 11:26N 34°36' E 135°21'0 0.1
2017-Dec-08 10:56N 34°36' E 135°22'0 0.1
2017-Dec-08 10:29N 34°36' E 135°21'0 0.1
2017-Dec-08 09:59N 34°36' E 135°22'1 1.9
2017-Dec-08 09:30N 34°36' E 135°21'611.8
2017-Dec-08 09:00N 34°32' E 135°15'612.0
2017-Dec-08 08:30N 34°27' E 135°10'611.4
2017-Dec-08 08:00N 34°23' E 135°05'612.1
2017-Dec-08 07:30N 34°19' E 135°00'611.3
2017-Dec-08 07:00N 34°13' E 134°60'611.7
2017-Dec-08 06:30N 34°07' E 134°59'611.3
2017-Dec-08 06:00N 34°02' E 134°59'511.0
2017-Dec-08 05:30N 33°56' E 134°59'510.7
2017-Dec-08 05:00N 33°51' E 134°59'511.0
2017-Dec-08 04:30N 33°46' E 134°57'1311.2
2017-Dec-08 03:22N 33°34' E 134°52'9912.7
2017-Dec-07 19:35N 32°28' E 133°23'  
Track history (hours):
 
Tides and Currents Weather Stations Pressure Air Temp Water Temp Dewpoint Dewpoint Depression Visibility Wind Speed Wind Dir Waves Ship Positions

Eastern Galaxy

Last reported at 2017-Dec-12 10:32 UTC. Time now 2017-Dec-18 09:04 UTC.
Position N 34°11' E 138°05'.

Length 100 m; draft 5.8 m.

Type: Cargo ship. MMSI: 548829000.

Date/timePositionNaut miles runAvg speedWind from/ knotsBaromVisibWave heightAir tempDewpointWater temp
2017-Dec-12 10:32N 34°11' E 138°05'9 7.7
2017-Dec-12 09:25N 34°14' E 138°15'3 6.1
2017-Dec-12 08:59N 34°15' E 138°18'3 4.6
2017-Dec-12 08:26N 34°16' E 138°21'3 4.9
2017-Dec-12 07:47N 34°18' E 138°24'1 4.6
2017-Dec-12 07:29N 34°19' E 138°25'3 4.9
2017-Dec-12 06:59N 34°19' E 138°28'2 4.9
2017-Dec-12 06:30N 34°20' E 138°31'2 4.8
2017-Dec-12 06:00N 34°21' E 138°34'3 4.9
2017-Dec-12 05:28N 34°22' E 138°36'2 5.0
2017-Dec-12 05:00N 34°23' E 138°39'2 4.6
2017-Dec-12 04:30N 34°24' E 138°42'3 5.1
2017-Dec-12 04:00N 34°25' E 138°45'4 6.6
2017-Dec-12 03:22N 34°27' E 138°49'3 5.8
2017-Dec-12 02:54N 34°28' E 138°52'2 4.7
2017-Dec-12 02:30N 34°29' E 138°54'3 5.6
2017-Dec-12 02:00N 34°29' E 138°58'3 5.8
2017-Dec-12 01:30N 34°31' E 139°00'3 5.6
2017-Dec-12 01:00N 34°33' E 139°02'3 5.4
2017-Dec-12 00:30N 34°36' E 139°04'3 6.3
2017-Dec-12 00:00N 34°38' E 139°06'3 5.8
2017-Dec-11 23:30N 34°41' E 139°08'4 7.4
2017-Dec-11 22:57N 34°44' E 139°12'3 7.3
2017-Dec-11 22:30N 34°46' E 139°15'4 7.1
2017-Dec-11 22:00N 34°49' E 139°18'3 6.6
2017-Dec-11 21:31N 34°51' E 139°20'3 6.4
2017-Dec-11 21:00N 34°52' E 139°24'4 7.5
2017-Dec-11 20:29N 34°53' E 139°28'4 8.7
2017-Dec-11 20:00N 34°57' E 139°32'5 9.4
2017-Dec-11 19:30N 35°00' E 139°35'5 9.6
2017-Dec-11 19:00N 35°03' E 139°40'4 8.8
2017-Dec-11 18:30N 35°06' E 139°44'5 9.6
2017-Dec-11 18:00N 35°11' E 139°46'510.3
2017-Dec-11 17:30N 35°16' E 139°46'611.6
2017-Dec-11 17:00N 35°21' E 139°42'510.2
2017-Dec-11 16:30N 35°26' E 139°43'2 4.4
2017-Dec-11 15:56N 35°28' E 139°42'0 0.0
2017-Dec-11 15:26N 35°28' E 139°42'0 0.0
2017-Dec-11 14:56N 35°28' E 139°42'0 0.0
2017-Dec-11 14:24N 35°28' E 139°42'0 0.0
2017-Dec-11 14:00N 35°28' E 139°42'0 0.0
2017-Dec-11 13:26N 35°28' E 139°42'0 0.0
2017-Dec-11 12:59N 35°28' E 139°42'0 0.0
2017-Dec-11 12:29N 35°28' E 139°42'0 0.0
2017-Dec-11 12:00N 35°28' E 139°42'0 0.0
2017-Dec-11 11:29N 35°28' E 139°42'0 0.0
2017-Dec-11 10:59N 35°28' E 139°42'0 0.0
2017-Dec-11 10:29N 35°28' E 139°42'0 0.0
2017-Dec-11 09:53N 35°28' E 139°42'0 0.0
2017-Dec-11 09:29N 35°28' E 139°42'0 0.0
2017-Dec-11 08:57N 35°28' E 139°42'0 0.0
2017-Dec-11 08:26N 35°28' E 139°42'0 0.0
2017-Dec-11 07:59N 35°28' E 139°42'0 0.0
2017-Dec-11 07:26N 35°28' E 139°42'0 0.0
2017-Dec-11 06:59N 35°28' E 139°42'0 0.0
2017-Dec-11 06:29N 35°28' E 139°42'0 0.0
2017-Dec-11 05:56N 35°28' E 139°42'0 0.0
2017-Dec-11 05:26N 35°28' E 139°42'0 0.0
2017-Dec-11 05:00N 35°28' E 139°42'0 0.0
2017-Dec-11 04:27N 35°28' E 139°42'0 0.0
2017-Dec-11 04:00N 35°28' E 139°42'0 0.0
2017-Dec-11 03:26N 35°28' E 139°42'0 0.0
2017-Dec-11 02:59N 35°28' E 139°42'0 0.0
2017-Dec-11 02:26N 35°28' E 139°42'0 0.0
2017-Dec-11 02:00N 35°28' E 139°42'0 0.0
2017-Dec-11 01:29N 35°28' E 139°42'0 0.0
2017-Dec-11 00:59N 35°28' E 139°42'0 0.0
2017-Dec-11 00:30N 35°28' E 139°42'0 0.0
2017-Dec-10 23:59N 35°28' E 139°42'0 0.0
2017-Dec-10 23:26N 35°28' E 139°42'0 0.0
2017-Dec-10 22:59N 35°28' E 139°42'0 0.0
2017-Dec-10 22:29N 35°28' E 139°42'1 2.2
2017-Dec-10 22:00N 35°27' E 139°43'1 2.0
2017-Dec-10 21:30N 35°26' E 139°43'0 0.0
2017-Dec-10 21:00N 35°26' E 139°43'0 0.0
2017-Dec-10 20:30N 35°26' E 139°43'0 0.0
2017-Dec-10 20:00N 35°26' E 139°43'0 0.0
2017-Dec-10 19:30N 35°26' E 139°43'0 0.0
2017-Dec-10 19:00N 35°26' E 139°43'0 0.0
2017-Dec-10 18:30N 35°26' E 139°43'0 0.1
2017-Dec-10 18:00N 35°26' E 139°43'0 0.0
2017-Dec-10 17:30N 35°26' E 139°43'0 0.0
2017-Dec-10 16:57N 35°26' E 139°43'0 0.1
2017-Dec-10 16:30N 35°26' E 139°43'0 0.0
2017-Dec-10 16:00N 35°26' E 139°43'0 0.0
2017-Dec-10 15:30N 35°26' E 139°43'0 0.0
2017-Dec-10 15:00N 35°26' E 139°43'0 0.1
2017-Dec-10 14:30N 35°26' E 139°43'0 0.0
2017-Dec-10 14:00N 35°26' E 139°43'0 0.0
2017-Dec-10 13:30N 35°26' E 139°43'0 0.2
2017-Dec-10 13:00N 35°26' E 139°43'1 1.1
2017-Dec-10 12:31N 35°26' E 139°43'1 2.5
2017-Dec-10 12:00N 35°26' E 139°44'3 5.8
2017-Dec-10 11:30N 35°24' E 139°46'510.6
2017-Dec-10 11:00N 35°19' E 139°44'510.0
2017-Dec-10 10:30N 35°14' E 139°47'612.2
2017-Dec-10 10:01N 35°08' E 139°46'611.7
2017-Dec-10 09:30N 35°03' E 139°42'612.9
2017-Dec-10 09:01N 34°59' E 139°36'713.5
2017-Dec-10 08:30N 34°54' E 139°30'713.7
2017-Dec-10 08:00N 34°50' E 139°24'714.1
2017-Dec-10 07:30N 34°46' E 139°17'815.0
2017-Dec-10 06:59N 34°40' E 139°11'715.3
2017-Dec-10 06:30N 34°34' E 139°06'714.7
2017-Dec-10 06:00N 34°28' E 139°00'814.2
2017-Dec-10 05:28N 34°25' E 138°52'713.6
2017-Dec-10 04:59N 34°22' E 138°45'713.6
2017-Dec-10 04:28N 34°19' E 138°37'713.5
2017-Dec-10 03:59N 34°17' E 138°30'713.5
2017-Dec-10 03:29N 34°14' E 138°22'713.4
2017-Dec-10 02:59N 34°12' E 138°15'14711.9
2017-Dec-09 14:37N 33°25' E 135°27'112.5
2017-Dec-09 14:30N 33°26' E 135°25'812.6
2017-Dec-09 13:51N 33°31' E 135°17'612.7
2017-Dec-09 13:25N 33°35' E 135°13'912.9
2017-Dec-09 12:43N 33°40' E 135°04'513.1
2017-Dec-09 12:20N 33°44' E 134°60'412.7
2017-Dec-09 12:00N 33°47' E 134°57'713.8
2017-Dec-09 11:30N 33°54' E 134°57'713.1
2017-Dec-09 11:00N 34°01' E 134°57'713.4
2017-Dec-09 10:30N 34°07' E 134°58'714.0
2017-Dec-09 10:00N 34°14' E 134°58'713.5
2017-Dec-09 09:30N 34°21' E 134°60'612.5
2017-Dec-09 09:01N 34°25' E 135°05'612.9
2017-Dec-09 08:30N 34°30' E 135°11'612.8
2017-Dec-09 08:00N 34°34' E 135°17'612.8
2017-Dec-09 07:31N 34°38' E 135°23'3 5.2
2017-Dec-09 06:58N 34°39' E 135°26'0 0.0
2017-Dec-09 06:28N 34°39' E 135°26'0 0.0
2017-Dec-09 05:58N 34°39' E 135°26'0 0.0
2017-Dec-09 05:28N 34°39' E 135°26'0 0.0
2017-Dec-09 04:58N 34°39' E 135°26'0 0.0
2017-Dec-09 04:25N 34°39' E 135°26'0 0.0
2017-Dec-09 03:58N 34°39' E 135°26'0 0.0
2017-Dec-09 03:28N 34°39' E 135°26'0 0.0
2017-Dec-09 02:58N 34°39' E 135°26'0 0.0
2017-Dec-09 02:28N 34°39' E 135°26'0 0.1
2017-Dec-09 01:58N 34°39' E 135°26'0 0.0
2017-Dec-09 01:28N 34°39' E 135°26'0 0.1
2017-Dec-09 00:55N 34°39' E 135°26'0 0.1
2017-Dec-09 00:28N 34°39' E 135°26'0 0.1
2017-Dec-08 23:58N 34°39' E 135°26'0 0.0
2017-Dec-08 23:28N 34°39' E 135°26'0 0.0
2017-Dec-08 22:58N 34°39' E 135°26'2 3.4
2017-Dec-08 22:30N 34°39' E 135°24'3 6.3
2017-Dec-08 21:59N 34°36' E 135°21'0 0.0
2017-Dec-08 21:26N 34°36' E 135°21'0 0.0
2017-Dec-08 20:56N 34°36' E 135°21'0 0.0
2017-Dec-08 20:29N 34°36' E 135°21'0 0.0
2017-Dec-08 19:56N 34°36' E 135°21'0 0.0
2017-Dec-08 19:29N 34°36' E 135°21'0 0.0
2017-Dec-08 18:56N 34°36' E 135°21'0 0.0
2017-Dec-08 18:26N 34°36' E 135°21'0 0.0
2017-Dec-08 17:56N 34°36' E 135°21'0 0.0
2017-Dec-08 17:26N 34°36' E 135°21'0 0.0
2017-Dec-08 16:50N 34°36' E 135°21'0 0.0
2017-Dec-08 16:26N 34°36' E 135°21'0 0.0
2017-Dec-08 15:56N 34°36' E 135°21'0 0.0
2017-Dec-08 15:29N 34°36' E 135°21'0 0.0
2017-Dec-08 14:59N 34°36' E 135°21'0 0.0
2017-Dec-08 14:26N 34°36' E 135°21'0 0.1
2017-Dec-08 13:59N 34°36' E 135°21'0 0.1
2017-Dec-08 13:29N 34°36' E 135°21'0 0.1
2017-Dec-08 12:59N 34°36' E 135°21'0 0.0
2017-Dec-08 12:29N 34°36' E 135°21'0 0.0
2017-Dec-08 11:59N 34°36' E 135°21'0 0.0
2017-Dec-08 11:26N 34°36' E 135°21'0 0.1
2017-Dec-08 10:56N 34°36' E 135°22'0 0.1
2017-Dec-08 10:29N 34°36' E 135°21'0 0.1
2017-Dec-08 09:59N 34°36' E 135°22'1 1.9
2017-Dec-08 09:30N 34°36' E 135°21'611.8
2017-Dec-08 09:00N 34°32' E 135°15'612.0
2017-Dec-08 08:30N 34°27' E 135°10'611.4
2017-Dec-08 08:00N 34°23' E 135°05'612.1
2017-Dec-08 07:30N 34°19' E 135°00'611.3
2017-Dec-08 07:00N 34°13' E 134°60'611.7
2017-Dec-08 06:30N 34°07' E 134°59'611.3
2017-Dec-08 06:00N 34°02' E 134°59'511.0
2017-Dec-08 05:30N 33°56' E 134°59'510.7
2017-Dec-08 05:00N 33°51' E 134°59'511.0
2017-Dec-08 04:30N 33°46' E 134°57'1311.2
2017-Dec-08 03:22N 33°34' E 134°52'9912.7
2017-Dec-07 19:35N 32°28' E 133°23'  

Dump ship's entire track history